Time;durP1;ratioP1;P1;durP2;ratioP2;P2;SDS_P1;SDS_P2;PMS_P1;PMS_P2;Temp;Humidity;BMP_temperature;BMP_pressure;BME280_temperature;BME280_humidity;BME280_pressure;Samples;Min_cycle;Max_cycle;Signal;HPM_P1;HPM_P2
2024/04/07 00:00:26;;;;;;;8.90;7.30;;;;;;;10.25;100.00;100682.77;107887;1260;62142;-76
2024/04/07 00:02:53;;;;;;;9.50;7.90;;;;;;;10.33;100.00;100683.12;107688;1260;75291;-77
2024/04/07 00:05:20;;;;;;;8.90;7.50;;;;;;;10.39;100.00;100688.59;107767;1260;70526;-76
2024/04/07 00:07:50;;;;;;;9.20;7.90;;;;;;;10.47;100.00;100692.77;107751;1261;72430;-76
2024/04/07 00:10:16;;;;;;;9.60;8.20;;;;;;;10.54;100.00;100694.76;107829;1257;61929;-76
2024/04/07 00:12:43;;;;;;;9.60;7.60;;;;;;;10.58;100.00;100696.65;107792;1258;62181;-75
2024/04/07 00:15:10;;;;;;;9.70;7.60;;;;;;;10.62;100.00;100695.46;107668;1260;75860;-75
2024/04/07 00:17:38;;;;;;;9.90;8.10;;;;;;;10.67;100.00;100695.35;107658;1258;72974;-75
2024/04/07 00:20:05;;;;;;;11.00;8.50;;;;;;;10.71;100.00;100701.91;107824;1260;71452;-76
2024/04/07 00:22:32;;;;;;;9.90;8.00;;;;;;;10.73;100.00;100703.80;107720;1258;61965;-76
2024/04/07 00:24:59;;;;;;;10.00;8.60;;;;;;;10.75;100.00;100710.48;107561;1260;62150;-76
2024/04/07 00:27:26;;;;;;;9.10;8.00;;;;;;;10.77;100.00;100716.81;107675;1259;75326;-76
2024/04/07 00:29:53;;;;;;;10.30;8.40;;;;;;;11.09;100.00;100716.84;107801;1259;72627;-76
2024/04/07 00:32:20;;;;;;;10.10;8.10;;;;;;;11.14;100.00;100711.31;107805;1258;72534;-76
2024/04/07 00:34:50;;;;;;;9.70;8.40;;;;;;;10.66;100.00;100721.99;107756;1257;62024;-75
2024/04/07 00:37:16;;;;;;;10.40;8.40;;;;;;;10.57;100.00;100729.56;107782;1261;61956;-76
2024/04/07 00:39:44;;;;;;;13.00;9.50;;;;;;;10.54;100.00;100734.98;107833;1259;75373;-75
2024/04/07 00:42:10;;;;;;;9.90;8.20;;;;;;;10.52;100.00;100739.60;107798;1259;72606;-76
2024/04/07 00:44:37;;;;;;;10.00;8.70;;;;;;;10.51;100.00;100743.23;107762;1258;72517;-76
2024/04/07 00:47:04;;;;;;;9.90;8.70;;;;;;;10.53;100.00;100745.11;107782;1258;61990;-76
2024/04/07 00:49:31;;;;;;;9.90;8.10;;;;;;;10.54;100.00;100751.06;107767;1258;61887;-77
2024/04/07 00:51:58;;;;;;;10.10;8.30;;;;;;;10.46;100.00;100751.04;107735;1260;75279;-76
2024/04/07 00:54:25;;;;;;;9.40;8.20;;;;;;;10.36;100.00;100748.41;107837;1257;71161;-76
2024/04/07 00:56:51;;;;;;;11.20;8.70;;;;;;;10.30;100.00;100747.33;107789;1261;72786;-76
2024/04/07 00:59:18;;;;;;;9.80;8.70;;;;;;;10.27;100.00;100752.64;107763;1258;62146;-75
2024/04/07 01:01:45;;;;;;;12.40;8.50;;;;;;;10.25;100.00;100759.48;107760;1259;62167;-75
2024/04/07 01:04:11;;;;;;;12.00;9.50;;;;;;;10.23;100.00;100763.34;107858;1259;75303;-74
2024/04/07 01:06:38;;;;;;;12.40;9.40;;;;;;;10.22;100.00;100769.25;107732;1259;72683;-75
2024/04/07 01:09:07;;;;;;;9.10;8.20;;;;;;;10.20;100.00;100761.49;107628;1258;72461;-76
2024/04/07 01:11:33;;;;;;;10.80;9.00;;;;;;;10.16;100.00;100764.48;107798;1259;61905;-75
2024/04/07 01:14:00;;;;;;;10.20;9.00;;;;;;;10.04;100.00;100768.52;107637;1259;62095;-76
2024/04/07 01:16:27;;;;;;;10.90;9.50;;;;;;;9.97;100.00;100774.39;107611;1260;75528;-76
2024/04/07 01:18:53;;;;;;;12.10;9.70;;;;;;;9.92;100.00;100784.85;107697;1259;72851;-75
2024/04/07 01:21:20;;;;;;;11.10;8.90;;;;;;;9.90;100.00;100789.88;107767;1259;72604;-77
2024/04/07 01:23:47;;;;;;;9.60;8.30;;;;;;;9.89;100.00;100789.29;107715;1259;62104;-76
2024/04/07 01:26:13;;;;;;;11.00;9.80;;;;;;;9.89;100.00;100790.35;107763;1259;59937;-75
2024/04/07 01:28:40;;;;;;;11.00;8.80;;;;;;;9.89;100.00;100792.44;107738;1259;74554;-76
2024/04/07 01:31:07;;;;;;;10.00;8.80;;;;;;;9.92;100.00;100792.80;107723;1259;72699;-78
2024/04/07 01:33:34;;;;;;;10.10;7.80;;;;;;;9.93;100.00;100796.61;107714;1259;72854;-76
2024/04/07 01:36:01;;;;;;;8.30;7.40;;;;;;;9.94;100.00;100795.44;107745;1259;61844;-79
2024/04/07 01:38:29;;;;;;;8.40;7.50;;;;;;;9.95;100.00;100799.30;107762;1259;61186;-77
2024/04/07 01:40:55;;;;;;;6.80;6.10;;;;;;;9.98;100.00;100797.14;107781;1259;75329;-76
2024/04/07 01:43:22;;;;;;;7.40;6.30;;;;;;;10.01;100.00;100800.92;107635;1259;71394;-76
2024/04/07 01:45:49;;;;;;;7.80;6.90;;;;;;;10.03;100.00;100804.89;107783;1258;71506;-76
2024/04/07 01:48:16;;;;;;;8.50;7.70;;;;;;;10.04;100.00;100803.15;107790;1259;62037;-76
2024/04/07 01:50:43;;;;;;;9.10;7.90;;;;;;;10.09;100.00;100808.09;107834;1259;61968;-76
2024/04/07 01:53:09;;;;;;;10.00;8.40;;;;;;;10.14;100.00;100813.73;107825;1260;76061;-77
2024/04/07 01:55:36;;;;;;;8.50;7.70;;;;;;;10.20;100.00;100817.39;107794;1259;72658;-77
2024/04/07 01:58:03;;;;;;;9.50;8.10;;;;;;;10.26;100.00;100815.84;107772;1259;71768;-76
2024/04/07 02:00:30;;;;;;;9.70;8.30;;;;;;;10.32;100.00;100816.39;107823;1259;61996;-75
2024/04/07 02:02:57;;;;;;;10.70;9.60;;;;;;;10.37;100.00;100822.27;107740;1259;61940;-76
2024/04/07 02:05:23;;;;;;;10.20;9.10;;;;;;;10.42;100.00;100822.98;107750;1258;75289;-75
2024/04/07 02:07:50;;;;;;;10.70;9.00;;;;;;;10.44;100.00;100831.13;107749;1259;72759;-75
2024/04/07 02:10:17;;;;;;;9.60;8.10;;;;;;;10.46;100.00;100831.78;107732;1258;72725;-75
2024/04/07 02:12:44;;;;;;;9.20;7.60;;;;;;;10.48;100.00;100836.40;107706;1259;62047;-75
2024/04/07 02:15:10;;;;;;;9.50;7.60;;;;;;;10.50;100.00;100835.35;107764;1259;62035;-75
2024/04/07 02:17:37;;;;;;;9.40;8.00;;;;;;;10.53;100.00;100831.17;107724;1262;74542;-75
2024/04/07 02:20:08;;;;;;;9.80;8.20;;;;;;;10.58;100.00;100830.54;107740;1259;71471;-76
2024/04/07 02:22:35;;;;;;;9.20;7.80;;;;;;;10.63;100.00;100829.04;107779;1260;73050;-77
2024/04/07 02:25:03;;;;;;;9.80;7.50;;;;;;;10.69;100.00;100820.08;107738;1258;62041;-77
2024/04/07 02:27:30;;;;;;;7.70;6.90;;;;;;;10.76;100.00;100819.67;107810;1259;62121;-75
2024/04/07 02:29:57;;;;;;;7.80;7.00;;;;;;;10.82;100.00;100821.98;107769;1257;75978;-75
2024/04/07 02:32:24;;;;;;;8.20;7.30;;;;;;;10.87;100.00;100829.67;107863;1257;72710;-76
2024/04/07 02:34:51;;;;;;;7.90;6.80;;;;;;;10.89;100.00;100839.14;107712;1260;72488;-75
2024/04/07 02:37:18;;;;;;;8.30;6.80;;;;;;;10.89;100.00;100840.21;107761;1259;61894;-76
2024/04/07 02:39:44;;;;;;;7.90;6.80;;;;;;;10.90;100.00;100848.25;107784;1259;61945;-76
2024/04/07 02:42:11;;;;;;;7.70;6.90;;;;;;;10.92;100.00;100856.64;107780;1258;75151;-76
2024/04/07 02:50:09;;;;;;;8.80;7.60;;;;;;;10.74;100.00;100859.56;107851;1260;62462;-76
2024/04/07 02:52:36;;;;;;;8.70;7.40;;;;;;;10.75;100.00;100857.76;107870;1261;61999;-76
2024/04/07 02:55:03;;;;;;;7.90;7.10;;;;;;;10.81;100.00;100858.66;107921;1257;75267;-77
2024/04/07 02:57:30;;;;;;;8.90;8.00;;;;;;;10.79;100.00;100860.15;107870;1260;73036;-77
2024/04/07 02:59:57;;;;;;;8.40;7.50;;;;;;;10.76;100.00;100859.33;107844;1261;72386;-75
2024/04/07 03:02:23;;;;;;;9.20;7.70;;;;;;;10.79;100.00;100867.14;107815;1258;61816;-76
2024/04/07 03:04:50;;;;;;;10.00;8.00;;;;;;;10.79;100.00;100866.14;107781;1261;60855;-75
2024/04/07 03:07:17;;;;;;;8.60;7.70;;;;;;;10.83;100.00;100861.10;108029;1257;74090;-75
2024/04/07 03:09:44;;;;;;;10.70;7.50;;;;;;;10.86;100.00;100860.27;107773;1260;71690;-75
2024/04/07 03:12:11;;;;;;;8.30;7.30;;;;;;;10.89;100.00;100865.51;107792;1257;72543;-75
2024/04/07 03:14:37;;;;;;;8.90;8.00;;;;;;;10.92;100.00;100863.34;107838;1257;62416;-75
2024/04/07 03:17:04;;;;;;;9.20;8.00;;;;;;;10.97;100.00;100862.16;107834;1260;62024;-75
2024/04/07 03:19:33;;;;;;;10.70;7.60;;;;;;;11.02;100.00;100859.27;107796;1260;75493;-76
2024/04/07 03:22:00;;;;;;;8.80;7.50;;;;;;;11.07;100.00;100863.10;107872;1258;72747;-76
2024/04/07 03:24:29;;;;;;;8.40;7.50;;;;;;;11.10;100.00;100864.01;107797;1258;73893;-76
2024/04/07 03:26:56;;;;;;;8.60;7.50;;;;;;;11.14;100.00;100867.45;107818;1259;61310;-75
2024/04/07 03:29:22;;;;;;;8.60;7.50;;;;;;;11.15;100.00;100871.10;107779;1257;61883;-76
2024/04/07 03:31:49;;;;;;;8.20;7.00;;;;;;;11.13;100.00;100876.06;107918;1262;75501;-76
2024/04/07 03:34:16;;;;;;;8.80;7.00;;;;;;;11.15;100.00;100884.99;107752;1258;71311;-76
2024/04/07 03:36:43;;;;;;;8.60;6.60;;;;;;;11.15;100.00;100886.83;107799;1260;72611;-75
2024/04/07 03:39:10;;;;;;;7.90;6.70;;;;;;;11.12;100.00;100890.76;107703;1258;62011;-75
2024/04/07 03:41:36;;;;;;;8.20;6.90;;;;;;;11.04;100.00;100898.42;107781;1258;61929;-75
2024/04/07 03:44:04;;;;;;;9.30;7.30;;;;;;;10.97;100.00;100904.81;107721;1259;73861;-75
2024/04/07 03:46:31;;;;;;;8.80;7.20;;;;;;;10.91;100.00;100907.05;107532;1258;73228;-75
2024/04/07 03:48:58;;;;;;;8.70;7.70;;;;;;;10.89;100.00;100909.02;107635;1260;72526;-76
2024/04/07 03:51:25;;;;;;;8.70;7.80;;;;;;;10.86;100.00;100914.95;107683;1260;62073;-77
2024/04/07 03:53:52;;;;;;;10.70;9.20;;;;;;;10.83;100.00;100921.34;107676;1262;60155;-75
2024/04/07 03:56:19;;;;;;;10.60;9.50;;;;;;;10.80;100.00;100924.39;107650;1262;75220;-75
2024/04/07 03:58:48;;;;;;;12.60;10.00;;;;;;;10.78;100.00;100929.60;107788;1260;71778;-75
2024/04/07 04:01:15;;;;;;;15.90;14.20;;;;;;;10.78;100.00;100932.33;107565;1259;71189;-75
2024/04/07 04:03:42;;;;;;;17.20;15.10;;;;;;;10.79;100.00;100933.30;107794;1260;61884;-76
2024/04/07 04:06:10;;;;;;;16.60;14.80;;;;;;;10.85;100.00;100936.00;107769;1260;61890;-76
2024/04/07 04:08:38;;;;;;;18.50;16.60;;;;;;;10.89;100.00;100941.23;107813;1260;75486;-75
2024/04/07 04:11:06;;;;;;;15.70;14.10;;;;;;;10.92;100.00;100944.73;107860;1262;72738;-76
2024/04/07 04:13:35;;;;;;;16.10;14.40;;;;;;;10.93;100.00;100946.36;107841;1258;72555;-75
2024/04/07 04:16:02;;;;;;;17.30;14.90;;;;;;;10.93;100.00;100943.95;107859;1258;61986;-75
2024/04/07 04:18:29;;;;;;;15.90;14.00;;;;;;;10.96;100.00;100946.49;107848;1258;62430;-75
2024/04/07 04:20:56;;;;;;;16.70;14.80;;;;;;;10.99;100.00;100947.71;107801;1259;75721;-76
2024/04/07 04:23:22;;;;;;;16.80;15.00;;;;;;;11.01;100.00;100949.02;107772;1260;72603;-75
2024/04/07 04:25:55;;;;;;;14.30;12.80;;;;;;;11.02;100.00;100953.93;107844;1257;72694;-77
2024/04/07 04:28:22;;;;;;;17.10;14.70;;;;;;;11.05;100.00;100962.10;107810;1259;62033;-75
2024/04/07 04:30:56;;;;;;;16.40;14.40;;;;;;;11.08;100.00;100971.91;107756;1260;60889;-76
2024/04/07 04:33:23;;;;;;;13.80;12.40;;;;;;;11.05;100.00;100975.89;107712;1257;74277;-76
2024/04/07 04:35:49;;;;;;;15.30;13.60;;;;;;;11.06;100.00;100978.42;107630;1264;71756;-76
2024/04/07 04:38:16;;;;;;;13.40;12.00;;;;;;;11.10;100.00;100977.73;107769;1257;72700;-75
2024/04/07 04:40:56;;;;;;;10.90;9.80;;;;;;;11.15;100.00;100979.49;107823;1257;61989;-74
2024/04/07 04:43:23;;;;;;;10.70;9.60;;;;;;;11.20;100.00;100980.34;107818;1257;61901;-74
2024/04/07 04:46:04;;;;;;;8.70;7.60;;;;;;;11.28;100.00;100983.75;107848;1260;75314;-77
2024/04/07 04:48:32;;;;;;;8.50;7.60;;;;;;;11.31;100.00;100992.55;107854;1257;72780;-75
2024/04/07 04:50:59;;;;;;;8.10;7.10;;;;;;;11.32;100.00;100994.05;107863;1257;72403;-75
2024/04/07 04:53:27;;;;;;;7.70;6.70;;;;;;;11.38;100.00;101000.33;107870;1257;62469;-75
2024/04/07 04:55:58;;;;;;;8.10;6.80;;;;;;;11.46;100.00;101000.41;107939;1257;61930;-76
2024/04/07 04:58:25;;;;;;;8.00;6.80;;;;;;;11.56;100.00;101001.31;107812;1260;74033;-75
2024/04/07 05:00:51;;;;;;;7.70;6.70;;;;;;;11.65;100.00;101006.06;107706;1258;72548;-76
2024/04/07 05:03:18;;;;;;;7.60;6.30;;;;;;;11.75;100.00;100996.36;107715;1258;72682;-76
2024/04/07 05:05:45;;;;;;;7.60;6.80;;;;;;;11.87;100.00;100993.61;107664;1261;62020;-76
2024/04/07 05:08:12;;;;;;;9.20;7.00;;;;;;;11.98;100.00;100993.45;107786;1258;62048;-76
2024/04/07 05:10:39;;;;;;;8.10;6.20;;;;;;;12.03;100.00;101004.50;107664;1257;75354;-76
2024/04/07 05:13:06;;;;;;;8.20;5.80;;;;;;;12.11;100.00;101006.81;107747;1258;71527;-77
2024/04/07 05:15:33;;;;;;;7.00;6.00;;;;;;;12.19;100.00;101004.11;107844;1257;71869;-76
2024/04/07 05:17:59;;;;;;;7.10;6.10;;;;;;;12.29;100.00;101005.77;107829;1258;62017;-76
2024/04/07 05:20:28;;;;;;;7.40;5.80;;;;;;;12.37;100.00;101007.34;107789;1261;64060;-76
2024/04/07 05:22:55;;;;;;;6.30;5.30;;;;;;;12.44;100.00;101011.08;107736;1261;75598;-75
2024/04/07 05:25:21;;;;;;;8.10;5.90;;;;;;;12.50;100.00;101014.29;107838;1262;72796;-77
2024/04/07 05:27:48;;;;;;;6.20;4.60;;;;;;;12.53;100.00;101019.55;107860;1259;72524;-76
2024/04/07 05:30:15;;;;;;;6.50;4.80;;;;;;;12.58;100.00;101021.34;107726;1260;60592;-74
2024/04/07 05:32:42;;;;;;;5.60;5.00;;;;;;;12.60;100.00;101017.66;107868;1258;60755;-77
2024/04/07 05:35:09;;;;;;;7.40;5.20;;;;;;;12.61;100.00;101010.75;107895;1257;75477;-77
2024/04/07 05:37:36;;;;;;;6.90;5.90;;;;;;;12.58;100.00;101010.41;107728;1260;72460;-75
2024/04/07 05:40:05;;;;;;;7.40;5.60;;;;;;;12.59;100.00;101007.69;107702;1260;72712;-78
2024/04/07 05:42:32;;;;;;;7.50;5.70;;;;;;;12.65;100.00;101017.15;107747;1260;62517;-75
2024/04/07 05:44:58;;;;;;;6.40;5.40;;;;;;;12.72;100.00;101024.21;107753;1260;60802;-76
2024/04/07 05:47:25;;;;;;;5.80;5.10;;;;;;;12.76;100.00;101033.52;107749;1260;75258;-76
2024/04/07 05:49:52;;;;;;;7.30;5.80;;;;;;;12.75;100.00;101039.77;107784;1258;71592;-76
2024/04/07 05:52:19;;;;;;;6.80;5.40;;;;;;;12.70;100.00;101040.77;107852;1262;72309;-77
2024/04/07 05:54:45;;;;;;;7.00;5.00;;;;;;;12.69;100.00;101039.48;107795;1262;62047;-75
2024/04/07 05:57:13;;;;;;;5.60;4.10;;;;;;;12.72;100.00;101035.15;107839;1260;61878;-77
2024/04/07 05:59:42;;;;;;;6.00;3.70;;;;;;;12.77;100.00;101041.83;107746;1261;74405;-75
2024/04/07 06:02:09;;;;;;;4.60;3.10;;;;;;;12.80;100.00;101042.45;107757;1260;70690;-76
2024/04/07 06:04:36;;;;;;;4.60;3.00;;;;;;;12.79;100.00;101039.44;107810;1258;72577;-75
2024/04/07 06:07:03;;;;;;;5.00;3.10;;;;;;;12.76;100.00;101041.56;107868;1257;62370;-75
2024/04/07 06:09:30;;;;;;;6.00;3.80;;;;;;;12.74;100.00;101047.08;107811;1257;62578;-75
2024/04/07 06:11:57;;;;;;;7.80;6.40;;;;;;;12.74;100.00;101049.48;107860;1258;74207;-76
2024/04/07 06:14:23;;;;;;;11.10;8.80;;;;;;;12.75;100.00;101046.86;107894;1263;72587;-75
2024/04/07 06:16:50;;;;;;;13.10;11.00;;;;;;;12.81;100.00;101053.49;107834;1257;72481;-76
2024/04/07 06:19:17;;;;;;;11.60;10.30;;;;;;;12.90;100.00;101057.19;107703;1261;62131;-76
2024/04/07 06:21:43;;;;;;;11.60;10.00;;;;;;;12.97;100.00;101055.77;107700;1261;62038;-77
2024/04/07 06:24:10;;;;;;;11.30;9.70;;;;;;;13.03;100.00;101062.88;107745;1259;75296;-75
2024/04/07 06:26:37;;;;;;;11.50;9.40;;;;;;;13.05;100.00;101063.96;107641;1257;72442;-76
2024/04/07 06:29:04;;;;;;;10.70;8.90;;;;;;;13.07;100.00;101072.66;107728;1257;72824;-74
2024/04/07 06:31:31;;;;;;;10.30;9.20;;;;;;;13.12;100.00;101077.84;107848;1257;61998;-77
2024/04/07 06:33:58;;;;;;;9.90;8.90;;;;;;;13.16;100.00;101073.02;107831;1262;62114;-76
2024/04/07 06:36:24;;;;;;;8.70;7.80;;;;;;;13.18;100.00;101067.14;107836;1258;75274;-77
2024/04/07 06:38:52;;;;;;;9.90;8.70;;;;;;;13.21;100.00;101067.90;107759;1263;71763;-77
2024/04/07 06:41:19;;;;;;;10.20;9.20;;;;;;;13.21;100.00;101069.40;107761;1260;71145;-79
2024/04/07 06:43:46;;;;;;;10.00;9.00;;;;;;;13.22;100.00;101068.11;107727;1257;61016;-79
2024/04/07 06:46:12;;;;;;;8.80;7.90;;;;;;;13.24;100.00;101068.88;107749;1261;62165;-77
2024/04/07 06:48:39;;;;;;;11.10;8.60;;;;;;;13.30;100.00;101072.42;107733;1260;75510;-76
2024/04/07 06:51:09;;;;;;;8.00;7.20;;;;;;;13.38;100.00;101074.27;107831;1261;72470;-76
2024/04/07 06:53:43;;;;;;;9.20;7.00;;;;;;;13.47;100.00;101078.86;107793;1257;73040;-76
2024/04/07 06:56:10;;;;;;;7.80;6.70;;;;;;;14.06;100.00;101075.93;107833;1263;61577;-76
2024/04/07 06:58:37;;;;;;;9.50;7.40;;;;;;;14.09;100.00;101074.21;107866;1258;61896;-75
2024/04/07 07:01:04;;;;;;;8.40;7.40;;;;;;;13.87;100.00;101076.23;107327;1258;661852;-76
2024/04/07 07:03:31;;;;;;;9.40;8.40;;;;;;;13.94;100.00;101078.39;107838;1257;70638;-76
2024/04/07 07:05:58;;;;;;;8.20;7.40;;;;;;;14.00;100.00;101085.82;107910;1257;72473;-75
2024/04/07 07:08:25;;;;;;;7.20;6.10;;;;;;;14.10;100.00;101090.45;107866;1258;62207;-76
2024/04/07 07:10:59;;;;;;;7.10;5.90;;;;;;;14.20;100.00;101094.11;107903;1257;61903;-76
2024/04/07 07:13:30;;;;;;;7.80;6.50;;;;;;;14.28;100.00;101097.16;107964;1257;75558;-76
2024/04/07 07:16:00;;;;;;;7.50;6.20;;;;;;;14.49;100.00;101105.99;107891;1261;71486;-76
2024/04/07 07:18:27;;;;;;;8.60;6.30;;;;;;;15.01;100.00;101101.37;107848;1258;72638;-77
2024/04/07 07:20:54;;;;;;;9.40;6.30;;;;;;;15.15;100.00;101099.34;107833;1257;62053;-78
2024/04/07 07:23:22;;;;;;;8.40;6.50;;;;;;;15.26;100.00;101098.02;107848;1257;61860;-76
2024/04/07 07:25:50;;;;;;;7.80;6.20;;;;;;;15.37;100.00;101103.73;107886;1258;75191;-76
2024/04/07 07:28:17;;;;;;;8.30;6.90;;;;;;;15.45;100.00;101109.24;107875;1257;72777;-76
2024/04/07 07:30:44;;;;;;;7.70;6.40;;;;;;;15.50;100.00;101107.71;107887;1257;72796;-76
2024/04/07 07:33:14;;;;;;;10.60;8.20;;;;;;;15.54;100.00;101104.52;107838;1257;62035;-76
2024/04/07 07:35:42;;;;;;;8.60;7.70;;;;;;;15.55;100.00;101112.16;107909;1262;62251;-76
2024/04/07 07:38:09;;;;;;;11.40;8.30;;;;;;;15.54;100.00;101119.39;107888;1257;75644;-77
2024/04/07 07:40:36;;;;;;;8.70;7.00;;;;;;;15.51;100.00;101120.35;107888;1258;73366;-77
2024/04/07 07:43:03;;;;;;;9.20;7.30;;;;;;;15.64;100.00;101114.60;107843;1257;72656;-77
2024/04/07 07:45:30;;;;;;;10.50;8.80;;;;;;;15.70;100.00;101112.65;107882;1257;62005;-75
2024/04/07 07:47:57;;;;;;;8.90;8.00;;;;;;;15.71;100.00;101112.11;107872;1257;62399;-76
2024/04/07 07:50:24;;;;;;;9.70;8.70;;;;;;;15.80;100.00;101109.91;107889;1257;75480;-77
2024/04/07 07:52:51;;;;;;;7.40;6.60;;;;;;;15.89;100.00;101104.73;107864;1257;72464;-75
2024/04/07 07:55:18;;;;;;;10.20;6.50;;;;;;;15.99;99.16;101103.02;107870;1257;72754;-76
2024/04/07 07:57:45;;;;;;;7.90;6.30;;;;;;;16.05;97.88;101109.38;107865;1263;62021;-77
2024/04/07 08:00:13;;;;;;;7.90;6.50;;;;;;;16.05;96.66;101107.98;107945;1257;60032;-76
2024/04/07 08:02:53;;;;;;;8.10;6.40;;;;;;;16.03;96.52;101101.90;107906;1258;75540;-77
2024/04/07 08:05:20;;;;;;;7.50;5.10;;;;;;;15.72;98.75;101106.51;107935;1257;71885;-76
2024/04/07 08:07:47;;;;;;;5.80;4.60;;;;;;;15.70;98.89;101110.83;107819;1257;72501;-76
2024/04/07 08:10:14;;;;;;;6.80;5.20;;;;;;;15.71;97.65;101111.63;107887;1257;61944;-76
2024/04/07 08:12:43;;;;;;;5.60;4.60;;;;;;;15.65;97.20;101112.65;107902;1257;61929;-76
2024/04/07 08:15:16;;;;;;;8.50;6.10;;;;;;;15.64;98.29;101117.98;107872;1257;75493;-75
2024/04/07 08:17:43;;;;;;;7.40;5.40;;;;;;;15.66;99.06;101119.83;107884;1257;71507;-75
2024/04/07 08:20:10;;;;;;;6.20;4.80;;;;;;;15.77;99.88;101119.08;107879;1258;72688;-75
2024/04/07 08:22:36;;;;;;;5.70;4.70;;;;;;;15.98;97.93;101116.27;107904;1258;61777;-77
2024/04/07 08:25:05;;;;;;;6.50;4.50;;;;;;;15.91;95.93;101118.73;107873;1257;61996;-77
2024/04/07 08:27:33;;;;;;;5.90;3.90;;;;;;;15.97;96.56;101114.92;107918;1257;75638;-78
2024/04/07 08:30:00;;;;;;;5.10;4.00;;;;;;;16.13;96.83;101121.30;107892;1257;72824;-76
2024/04/07 08:32:28;;;;;;;7.00;4.30;;;;;;;16.27;96.27;101120.33;107805;1257;72496;-77
2024/04/07 08:34:55;;;;;;;5.40;3.60;;;;;;;16.41;92.88;101117.52;107829;1258;61846;-77
2024/04/07 08:37:22;;;;;;;4.80;3.30;;;;;;;16.50;91.98;101119.60;107856;1257;61929;-77
2024/04/07 08:39:49;;;;;;;5.50;3.70;;;;;;;16.63;91.15;101117.27;107796;1257;73366;-78
2024/04/07 08:42:16;;;;;;;4.60;3.40;;;;;;;16.77;89.48;101114.80;107777;1258;72580;-76
2024/04/07 08:44:44;;;;;;;5.30;3.30;;;;;;;16.87;87.96;101110.06;107682;1257;72487;-77
2024/04/07 08:47:13;;;;;;;4.60;3.00;;;;;;;16.95;86.41;101108.41;107742;1263;63615;-77
2024/04/07 08:49:41;;;;;;;4.00;2.80;;;;;;;17.02;84.39;101110.88;107832;1257;62066;-76
2024/04/07 08:52:08;;;;;;;3.60;2.30;;;;;;;17.08;81.89;101114.27;107843;1257;75511;-78
2024/04/07 08:54:36;;;;;;;4.00;2.40;;;;;;;17.09;78.59;101117.81;107785;1260;72601;-75
2024/04/07 08:57:09;;;;;;;3.30;2.20;;;;;;;17.02;76.97;101117.79;107789;1257;72349;-78
2024/04/07 08:59:36;;;;;;;4.50;2.10;;;;;;;17.03;77.80;101115.40;107491;1258;61992;-77
2024/04/07 09:02:03;;;;;;;4.50;2.40;;;;;;;17.09;75.19;101112.73;107581;1257;61943;-76
2024/04/07 09:04:32;;;;;;;4.20;2.40;;;;;;;17.01;73.83;101114.41;107610;1264;75312;-76
2024/04/07 09:07:01;;;;;;;3.80;2.00;;;;;;;16.97;75.29;101113.41;107805;1258;72810;-77
2024/04/07 09:09:28;;;;;;;4.10;2.20;;;;;;;17.06;76.14;101110.67;107647;1260;72922;-78
2024/04/07 09:11:55;;;;;;;4.30;2.30;;;;;;;17.16;76.52;101108.30;107793;1260;62108;-77
2024/04/07 09:14:25;;;;;;;3.70;1.90;;;;;;;17.31;76.18;101110.12;107801;1260;62050;-78
2024/04/07 09:17:04;;;;;;;2.90;1.70;;;;;;;17.44;72.62;101099.96;107743;1257;74545;-78
2024/04/07 09:19:35;;;;;;;3.60;1.90;;;;;;;17.50;71.04;101100.80;107841;1257;72814;-77
2024/04/07 09:22:03;;;;;;;3.90;1.90;;;;;;;17.60;68.60;101105.59;107854;1257;72764;-78
2024/04/07 09:24:31;;;;;;;4.70;1.80;;;;;;;17.72;67.66;101109.34;107805;1257;61997;-78
2024/04/07 09:27:12;;;;;;;3.70;1.80;;;;;;;17.86;66.94;101108.30;107850;1257;62043;-78
2024/04/07 09:29:41;;;;;;;3.80;1.60;;;;;;;17.91;65.31;101111.69;107839;1258;74089;-78
2024/04/07 09:32:08;;;;;;;3.40;1.80;;;;;;;17.83;63.08;101114.44;107792;1259;72805;-79
2024/04/07 09:34:38;;;;;;;3.60;1.80;;;;;;;17.66;63.86;101118.02;107806;1257;72751;-77
2024/04/07 09:37:05;;;;;;;2.90;1.50;;;;;;;17.70;64.71;101117.40;107690;1260;62104;-78
2024/04/07 09:39:32;;;;;;;3.50;1.90;;;;;;;17.85;62.24;101125.71;107796;1257;62114;-77
2024/04/07 09:42:01;;;;;;;3.90;1.90;;;;;;;17.93;61.18;101127.98;107883;1258;75982;-79
2024/04/07 09:44:35;;;;;;;3.80;2.00;;;;;;;18.00;60.64;101134.04;107854;1257;71346;-78
2024/04/07 09:47:06;;;;;;;3.20;1.70;;;;;;;18.11;59.21;101131.49;107850;1259;72663;-78
2024/04/07 09:49:38;;;;;;;2.80;1.20;;;;;;;18.23;58.93;101129.64;107818;1259;62399;-77
2024/04/07 09:52:05;;;;;;;3.50;1.60;;;;;;;18.40;57.91;101130.09;107809;1259;61906;-76
2024/04/07 09:54:45;;;;;;;5.70;1.90;;;;;;;18.50;56.73;101135.54;107809;1257;75459;-76
2024/04/07 09:57:13;;;;;;;2.30;1.20;;;;;;;18.63;56.09;101135.43;107647;1257;72936;-77
2024/04/07 09:59:42;;;;;;;2.50;1.20;;;;;;;18.73;55.22;101134.23;107858;1257;71428;-78
2024/04/07 10:02:10;;;;;;;3.10;1.40;;;;;;;18.84;54.87;101136.61;107853;1257;61931;-78
2024/04/07 10:04:41;;;;;;;3.10;1.20;;;;;;;18.95;53.32;101134.84;107842;1257;62057;-78
2024/04/07 10:07:09;;;;;;;2.00;1.10;;;;;;;19.02;52.48;101134.83;107869;1257;74644;-79
2024/04/07 10:09:36;;;;;;;2.90;1.00;;;;;;;19.10;50.80;101133.58;107612;1257;72638;-77
2024/04/07 10:12:03;;;;;;;2.30;1.20;;;;;;;19.13;50.13;101139.20;107607;1257;72583;-78
2024/04/07 10:14:40;;;;;;;3.10;1.30;;;;;;;19.16;50.72;101138.13;107806;1257;62448;-78
2024/04/07 10:17:09;;;;;;;3.00;1.10;;;;;;;19.23;50.29;101139.92;107844;1257;61923;-78
2024/04/07 10:19:44;;;;;;;3.10;1.40;;;;;;;19.29;48.82;101139.71;107883;1258;75505;-77
2024/04/07 10:22:12;;;;;;;2.80;1.20;;;;;;;19.31;48.65;101138.36;107674;1258;72834;-77
2024/04/07 10:24:42;;;;;;;3.40;1.60;;;;;;;19.30;47.86;101140.99;107778;1257;71480;-78
2024/04/07 10:27:10;;;;;;;3.80;1.00;;;;;;;19.28;48.17;101141.64;107926;1257;62023;-76
2024/04/07 10:29:38;;;;;;;2.60;1.00;;;;;;;19.33;47.03;101139.75;107988;1257;62037;-77
2024/04/07 10:32:19;;;;;;;4.10;1.50;;;;;;;19.35;46.58;101141.45;107831;1260;77554;-80
2024/04/07 10:34:59;;;;;;;2.90;1.20;;;;;;;19.39;46.54;101136.96;108033;1259;72720;-78
2024/04/07 10:37:35;;;;;;;2.70;1.10;;;;;;;19.40;46.56;101139.10;107846;1257;72786;-78
2024/04/07 10:40:12;;;;;;;2.70;1.20;;;;;;;19.48;45.92;101139.88;107596;1257;60949;-78
2024/04/07 10:42:52;;;;;;;3.60;1.10;;;;;;;19.56;45.68;101139.27;107827;1259;62060;-77
2024/04/07 10:45:41;;;;;;;3.30;1.50;;;;;;;19.69;44.94;101139.30;107755;1260;74315;-77
2024/04/07 10:48:11;;;;;;;4.30;1.50;;;;;;;19.74;44.96;101136.26;107822;1260;72807;-78
2024/04/07 10:51:06;;;;;;;3.70;1.50;;;;;;;19.84;45.75;101134.25;107785;1259;73160;-78
2024/04/07 10:54:13;;;;;;;2.60;1.30;;;;;;;20.00;44.90;101137.80;107784;1259;61928;-77
2024/04/07 10:56:57;;;;;;;3.80;1.40;;;;;;;20.09;44.11;101138.52;107783;1259;61921;-78
2024/04/07 10:59:44;;;;;;;3.80;1.20;;;;;;;20.11;43.98;101136.44;107730;1260;75387;-78
2024/04/07 11:02:23;;;;;;;3.40;1.10;;;;;;;20.15;44.12;101134.53;107829;1259;72560;-77
2024/04/07 11:05:12;;;;;;;4.10;1.30;;;;;;;20.21;43.72;101132.77;107625;1259;72791;-77
2024/04/07 11:07:50;;;;;;;4.00;1.40;;;;;;;20.27;43.69;101135.49;107839;1259;62386;-77
2024/04/07 11:10:32;;;;;;;2.40;1.20;;;;;;;20.37;43.46;101137.48;107790;1260;61967;-77
2024/04/07 11:13:34;;;;;;;2.20;1.00;;;;;;;20.42;42.82;101138.95;107576;1258;74515;-77
2024/04/07 11:16:20;;;;;;;3.30;1.20;;;;;;;20.40;43.16;101136.86;107725;1262;72470;-76
2024/04/07 11:18:50;;;;;;;3.50;1.40;;;;;;;20.46;43.10;101135.59;107798;1258;71575;-77
2024/04/07 11:21:18;;;;;;;3.30;1.40;;;;;;;20.52;43.07;101134.21;107780;1259;62014;-79